Pagina principală
METAR-TAF:

METAR-TAF

Aeroporturi :

Jackson, Mississippi, Statele Unite ale Americii

Latitudine: 32-19-11N, longitudine: 090-04-39W, elevație: 105 m

Observații meteo curente

Raportul a fost făcut în urmă cu 1 oră și 5 de minute, la 20:54 UTC
Vânt 5 kt de la Sud
Temperatură 34°C
Umiditate 39%
Presiune 1016 hPa
Vizibilitate: 16.1 km
Nori puțini la o înălțime de 6500 picior

METAR: KJAN 222054Z 18005KT 10SM FEW065 34/18 A3000 RMK AO2 SLP155 T03440183 56021

Ora: 16:59 (21:59 UTC)

Prognoză

Raportul a fost făcut în urmă cu 4 ore și 39 de minute, la 17:20 UTC
Prognoză valabilă de la 22 ora 18 UTC la 23 ora 18 UTC
Vânt kt de la Nord
Vizibilitate: 10 km
Nori puțini la o înălțime de 25000 picior

TAF: KJAN 221720Z 2218/2318 00000KT P6SM FEW250

Observații și prognoze meteo pentru peste 4.000 de aeroporturi (rapoarte METAR și TAF).

Stațiile disponibile sunt reprezentate pe hartă prin puncte galbene și roșii.

Țineți indicatorul mouse-ului pe punctul dorit pentru a vedea denumirea stației.

Apoi, faceți clic pentru a vedea observațiile și prognozele meteorologice.

Pentru a schimba harta: Pentru mărire, faceți clic pe butoanele verzi cu cruce neagră; pentru micșorare, pe butonul verde cu o liniuță; pentru hărți învecinate, pe săgețile verzi.


METAR-TAF: